createdAt,value
2018-07-11T00:00:10.016Z,17.54
2018-07-11T00:02:38.248Z,17.52
2018-07-11T00:05:06.525Z,17.48
2018-07-11T00:07:34.749Z,17.45
2018-07-11T00:10:03.115Z,17.45
2018-07-11T00:12:31.325Z,17.45
2018-07-11T00:14:59.559Z,17.46
2018-07-11T00:17:27.733Z,17.46
2018-07-11T00:19:56.029Z,17.45
2018-07-11T00:22:24.293Z,17.45
2018-07-11T00:24:52.556Z,17.44
2018-07-11T00:27:20.800Z,17.43
2018-07-11T00:29:49.040Z,17.40
2018-07-11T00:32:17.512Z,17.38
2018-07-11T00:34:45.800Z,17.34
2018-07-11T00:37:14.120Z,17.31
2018-07-11T00:39:42.329Z,17.28
2018-07-11T00:42:10.581Z,17.26
2018-07-11T00:44:38.850Z,17.24
2018-07-11T00:47:07.114Z,17.22
2018-07-11T00:49:35.341Z,17.21
2018-07-11T00:52:03.578Z,17.18
2018-07-11T00:54:31.821Z,17.16
2018-07-11T00:57:00.502Z,17.14
2018-07-11T00:59:30.239Z,17.11
2018-07-11T01:02:03.951Z,17.07
2018-07-11T01:04:32.587Z,17.03
2018-07-11T01:07:04.013Z,16.99
2018-07-11T01:09:33.024Z,16.96
2018-07-11T01:12:01.273Z,16.92
2018-07-11T01:14:29.513Z,16.91
2018-07-11T01:16:57.768Z,16.92
2018-07-11T01:19:26.025Z,16.92
2018-07-11T01:22:02.109Z,16.94
2018-07-11T01:24:31.208Z,16.94
2018-07-11T01:27:00.352Z,16.94
2018-07-11T01:29:28.579Z,16.94
2018-07-11T01:31:56.852Z,16.92
2018-07-11T01:34:25.073Z,16.92
2018-07-11T01:36:53.297Z,16.91
2018-07-11T01:39:21.540Z,16.92
2018-07-11T01:41:49.789Z,16.95
2018-07-11T01:44:18.021Z,16.96
2018-07-11T01:46:48.264Z,16.97
2018-07-11T01:49:16.508Z,17.00
2018-07-11T01:51:56.708Z,17.03
2018-07-11T01:54:25.260Z,17.06
2018-07-11T01:56:53.548Z,17.08
2018-07-11T01:59:22.251Z,17.07
2018-07-11T02:01:50.729Z,17.07
2018-07-11T02:04:18.993Z,17.06
2018-07-11T02:06:47.237Z,17.06
2018-07-11T02:09:15.512Z,17.05
2018-07-11T02:11:43.764Z,17.02
2018-07-11T02:14:12.091Z,17.03
2018-07-11T02:16:40.338Z,17.01
2018-07-11T02:19:08.592Z,16.98
2018-07-11T02:21:36.861Z,16.95
2018-07-11T02:24:05.556Z,16.94
2018-07-11T02:26:33.800Z,16.94
2018-07-11T02:29:02.119Z,16.92
2018-07-11T02:31:30.413Z,16.91
2018-07-11T02:33:58.896Z,16.87
2018-07-11T02:36:27.161Z,16.83
2018-07-11T02:38:55.398Z,16.80
2018-07-11T02:41:23.645Z,16.75
2018-07-11T02:43:51.842Z,16.72
2018-07-11T02:46:24.262Z,16.67
2018-07-11T02:48:52.493Z,16.65
2018-07-11T02:51:20.737Z,16.59
2018-07-11T02:53:48.969Z,16.54
2018-07-11T02:56:17.201Z,16.49
2018-07-11T02:58:45.441Z,16.47
2018-07-11T03:01:13.678Z,16.49
2018-07-11T03:03:41.917Z,16.52
2018-07-11T03:06:10.136Z,16.52
2018-07-11T03:08:38.953Z,16.53
2018-07-11T03:11:07.200Z,16.56
2018-07-11T03:13:35.610Z,16.58
2018-07-11T03:16:03.850Z,16.62
2018-07-11T03:18:32.176Z,16.66
2018-07-11T03:21:00.454Z,16.69
2018-07-11T03:23:28.728Z,16.74
2018-07-11T03:25:57.015Z,16.79
2018-07-11T03:28:25.252Z,16.82
2018-07-11T03:30:53.461Z,16.87
2018-07-11T03:33:21.688Z,16.93
2018-07-11T03:35:49.939Z,16.96
2018-07-11T03:38:18.253Z,16.96
2018-07-11T03:40:46.505Z,16.99
2018-07-11T03:43:14.732Z,17.02
2018-07-11T03:45:42.960Z,17.04
2018-07-11T03:48:11.216Z,17.02
2018-07-11T03:50:39.445Z,17.01
2018-07-11T03:53:07.693Z,17.00
2018-07-11T03:55:35.930Z,17.01
2018-07-11T03:58:04.138Z,17.00
2018-07-11T04:00:32.349Z,16.97
2018-07-11T04:03:00.629Z,16.96
2018-07-11T04:05:28.837Z,16.97
2018-07-11T04:07:57.146Z,16.96
2018-07-11T04:10:25.333Z,16.94
2018-07-11T04:13:01.534Z,16.93
2018-07-11T04:15:29.802Z,16.93
2018-07-11T04:17:58.036Z,16.92
2018-07-11T04:20:26.331Z,16.92
2018-07-11T04:22:54.584Z,16.95
2018-07-11T04:25:22.933Z,16.97
2018-07-11T04:27:51.188Z,17.02
2018-07-11T04:30:19.479Z,17.07
2018-07-11T04:32:47.781Z,17.11
2018-07-11T04:35:16.004Z,17.14
2018-07-11T04:37:44.256Z,17.18
2018-07-11T04:40:12.541Z,17.23
2018-07-11T04:42:40.807Z,17.26
2018-07-11T04:45:09.085Z,17.31
2018-07-11T04:47:37.357Z,17.37
2018-07-11T04:50:05.604Z,17.39
2018-07-11T04:52:33.868Z,17.40
2018-07-11T04:55:02.101Z,17.41
2018-07-11T04:57:30.354Z,17.47
2018-07-11T04:59:58.784Z,17.51
2018-07-11T05:02:27.073Z,17.52
2018-07-11T05:04:55.274Z,17.54
2018-07-11T05:07:23.488Z,17.56
2018-07-11T05:09:51.716Z,17.57
2018-07-11T05:12:20.888Z,17.58
2018-07-11T05:14:49.096Z,17.60
2018-07-11T05:17:17.423Z,17.57
2018-07-11T05:19:45.616Z,17.56
2018-07-11T05:22:13.841Z,17.56
2018-07-11T05:24:42.120Z,17.56
2018-07-11T05:27:10.404Z,17.59
2018-07-11T05:29:38.604Z,17.61
2018-07-11T05:32:06.855Z,17.61
2018-07-11T05:34:35.132Z,17.63
2018-07-11T05:37:03.389Z,17.69
2018-07-11T05:39:31.648Z,17.70
2018-07-11T05:41:59.864Z,17.73
2018-07-11T05:44:28.105Z,17.74
2018-07-11T05:47:01.644Z,17.73
2018-07-11T05:49:30.317Z,17.76
2018-07-11T05:51:58.596Z,17.77
2018-07-11T05:54:26.817Z,17.78
2018-07-11T05:56:55.013Z,17.79
2018-07-11T05:59:23.447Z,17.78
2018-07-11T06:01:51.708Z,17.79
2018-07-11T06:04:20.248Z,17.81
2018-07-11T06:06:48.728Z,17.87
2018-07-11T06:09:17.105Z,17.92
2018-07-11T06:11:45.322Z,17.99
2018-07-11T06:14:13.572Z,18.02
2018-07-11T06:16:41.848Z,18.01
2018-07-11T06:19:10.164Z,18.05
2018-07-11T06:21:38.501Z,18.06
2018-07-11T06:24:07.153Z,18.01
2018-07-11T06:26:35.412Z,17.99
2018-07-11T06:29:03.641Z,17.94
2018-07-11T06:31:31.860Z,17.91
2018-07-11T06:34:00.085Z,17.90
2018-07-11T06:36:28.309Z,17.89
2018-07-11T06:38:56.584Z,17.87
2018-07-11T06:41:24.801Z,17.86
2018-07-11T06:43:53.285Z,17.85
2018-07-11T06:46:21.513Z,17.85
2018-07-11T06:48:49.748Z,17.86
2018-07-11T06:51:17.989Z,17.86
2018-07-11T06:53:46.209Z,17.85
2018-07-11T06:56:14.417Z,17.85
2018-07-11T06:58:42.661Z,17.91
2018-07-11T07:01:10.914Z,17.92
2018-07-11T07:03:39.453Z,17.97
2018-07-11T07:06:07.636Z,18.01
2018-07-11T07:08:35.841Z,18.03
2018-07-11T07:11:04.072Z,18.02
2018-07-11T07:13:32.306Z,18.01
2018-07-11T07:16:00.526Z,18.01
2018-07-11T07:18:28.765Z,18.03
2018-07-11T07:20:57.005Z,18.05
2018-07-11T07:23:25.227Z,18.06
2018-07-11T07:25:53.449Z,18.06
2018-07-11T07:28:21.688Z,18.04
2018-07-11T07:30:49.944Z,18.05
2018-07-11T07:33:18.192Z,18.05
2018-07-11T07:35:46.504Z,18.06
2018-07-11T07:38:14.705Z,18.10
2018-07-11T07:40:42.908Z,18.12
2018-07-11T07:43:11.149Z,18.15
2018-07-11T07:45:40.600Z,18.21
2018-07-11T07:48:08.873Z,18.26
2018-07-11T07:50:37.152Z,18.30
2018-07-11T07:53:05.463Z,18.34
2018-07-11T07:55:33.745Z,18.39
2018-07-11T07:58:02.048Z,18.45
2018-07-11T08:00:30.325Z,18.46
2018-07-11T08:02:59.032Z,18.51
2018-07-11T08:05:27.289Z,18.57
2018-07-11T08:07:55.537Z,18.62
2018-07-11T08:10:23.892Z,18.66
2018-07-11T08:12:52.110Z,18.70
2018-07-11T08:15:20.334Z,18.74
2018-07-11T08:17:48.558Z,18.79
2018-07-11T08:20:16.798Z,18.84
2018-07-11T08:23:23.046Z,18.88
2018-07-11T08:26:03.605Z,18.91
2018-07-11T08:30:46.961Z,18.95
2018-07-11T08:35:33.611Z,18.95
2018-07-11T08:38:24.306Z,18.93
2018-07-11T08:41:16.279Z,18.92
2018-07-11T08:47:01.899Z,18.93
2018-07-11T08:49:40.306Z,18.96
2018-07-11T08:52:49.884Z,18.98
2018-07-11T08:56:41.157Z,18.98
2018-07-11T08:59:20.881Z,19.06
2018-07-11T09:03:02.277Z,19.18
2018-07-11T09:07:48.101Z,19.27
2018-07-11T09:12:31.780Z,19.38
2018-07-11T09:15:11.324Z,19.39
2018-07-11T09:18:20.245Z,19.43
2018-07-11T09:21:17.773Z,19.55
2018-07-11T09:23:57.376Z,19.66
2018-07-11T09:26:25.592Z,19.76
2018-07-11T09:28:53.878Z,19.85
2018-07-11T09:31:22.116Z,19.92
2018-07-11T09:33:50.569Z,20.03
2018-07-11T09:36:18.841Z,20.13
2018-07-11T09:38:47.162Z,20.18
2018-07-11T09:41:15.340Z,20.21
2018-07-11T09:43:43.837Z,20.25
2018-07-11T09:46:12.077Z,20.27
2018-07-11T09:48:40.305Z,20.28
2018-07-11T09:51:08.985Z,20.29
2018-07-11T09:53:37.632Z,20.28
2018-07-11T09:56:06.329Z,20.29
2018-07-11T09:58:34.589Z,20.29
2018-07-11T10:01:08.244Z,20.29
2018-07-11T10:03:36.508Z,20.29
2018-07-11T10:06:04.785Z,20.28
2018-07-11T10:08:33.020Z,20.31
2018-07-11T10:11:01.235Z,20.36
2018-07-11T10:13:29.436Z,20.45
2018-07-11T10:15:57.681Z,20.53
2018-07-11T10:18:25.912Z,20.59
2018-07-11T10:20:54.129Z,20.66
2018-07-11T10:23:22.344Z,20.70
2018-07-11T10:25:50.628Z,20.77
2018-07-11T10:28:20.080Z,20.82
2018-07-11T10:30:48.688Z,20.91
2018-07-11T10:33:16.931Z,21.03
2018-07-11T10:35:45.145Z,21.12
2018-07-11T10:38:13.538Z,21.16
2018-07-11T10:40:41.865Z,21.12
2018-07-11T10:43:10.429Z,21.06
2018-07-11T10:45:38.674Z,21.00
2018-07-11T10:48:06.906Z,21.02
2018-07-11T10:50:35.159Z,21.15
2018-07-11T10:53:03.344Z,21.38
2018-07-11T10:55:31.581Z,21.62
2018-07-11T10:57:59.887Z,21.95
2018-07-11T11:00:36.664Z,22.15
2018-07-11T11:02:58.790Z,22.39
2018-07-11T11:05:27.012Z,22.65
2018-07-11T11:07:55.279Z,22.82
2018-07-11T11:10:23.489Z,22.97
2018-07-11T11:12:51.716Z,23.14
2018-07-11T11:15:19.932Z,23.37
2018-07-11T11:17:48.145Z,23.37
2018-07-11T11:20:16.376Z,23.20
2018-07-11T11:22:44.677Z,22.94
2018-07-11T11:25:12.925Z,22.73
2018-07-11T11:27:41.153Z,22.59
2018-07-11T11:30:09.360Z,22.46
2018-07-11T11:32:37.598Z,22.44
2018-07-11T11:35:06.117Z,22.45
2018-07-11T11:37:34.397Z,22.46
2018-07-11T11:40:02.642Z,22.46
2018-07-11T11:42:31.253Z,22.46
2018-07-11T11:44:59.101Z,22.40
2018-07-11T11:47:28.496Z,22.39
2018-07-11T11:49:57.498Z,22.34
2018-07-11T11:52:26.006Z,22.38
2018-07-11T11:54:54.693Z,22.40
2018-07-11T11:57:23.357Z,22.39
2018-07-11T11:59:51.906Z,22.41
2018-07-11T12:02:20.216Z,22.48
2018-07-11T12:04:48.456Z,22.67
2018-07-11T12:07:16.744Z,22.87
2018-07-11T12:09:45.017Z,22.98
2018-07-11T12:12:13.275Z,23.11
2018-07-11T12:14:41.476Z,23.20
2018-07-11T12:17:09.789Z,23.43
2018-07-11T12:19:38.037Z,23.57
2018-07-11T12:22:06.436Z,23.64
2018-07-11T12:24:34.710Z,23.68
2018-07-11T12:27:03.025Z,23.67
2018-07-11T12:29:31.240Z,23.67
2018-07-11T12:31:59.461Z,23.65
2018-07-11T12:34:27.685Z,23.73
2018-07-11T12:36:56.711Z,23.79
2018-07-11T12:39:24.984Z,23.85
2018-07-11T12:41:53.245Z,23.90
2018-07-11T12:44:21.500Z,23.99
2018-07-11T12:46:49.760Z,24.05
2018-07-11T12:49:18.026Z,24.10
2018-07-11T12:51:46.257Z,24.08
2018-07-11T12:54:14.514Z,23.97
2018-07-11T12:56:42.745Z,23.84
2018-07-11T12:59:11.014Z,23.73
2018-07-11T13:01:39.326Z,23.70
2018-07-11T13:04:07.669Z,23.75
2018-07-11T13:06:37.528Z,23.75
2018-07-11T13:09:06.714Z,23.67
2018-07-11T13:11:35.014Z,23.65
2018-07-11T13:14:03.301Z,23.72
2018-07-11T13:16:31.621Z,23.83
2018-07-11T13:18:59.808Z,23.91
2018-07-11T13:21:28.048Z,23.94
2018-07-11T13:23:56.272Z,23.90
2018-07-11T13:26:24.484Z,23.76
2018-07-11T13:28:52.741Z,23.70
2018-07-11T13:31:21.013Z,23.65
2018-07-11T13:33:49.336Z,23.63
2018-07-11T13:36:17.565Z,23.63
2018-07-11T13:38:45.785Z,23.60
2018-07-11T13:41:14.100Z,23.55
2018-07-11T13:43:42.360Z,23.47
2018-07-11T13:46:10.591Z,23.38
2018-07-11T13:48:38.798Z,23.32
2018-07-11T13:51:07.053Z,23.26
2018-07-11T13:53:35.336Z,23.22
2018-07-11T13:56:03.620Z,23.15
2018-07-11T13:58:31.883Z,23.09
2018-07-11T14:01:00.247Z,23.00
2018-07-11T14:03:28.504Z,22.93
2018-07-11T14:05:56.745Z,22.91
2018-07-11T14:08:25.924Z,22.90
2018-07-11T14:10:54.345Z,22.88
2018-07-11T14:13:22.588Z,22.88
2018-07-11T14:15:50.791Z,22.86
2018-07-11T14:18:18.997Z,22.83
2018-07-11T14:20:47.204Z,22.81
2018-07-11T14:23:20.593Z,22.77
2018-07-11T14:25:49.532Z,22.73
2018-07-11T14:28:24.400Z,22.72
2018-07-11T14:30:52.641Z,22.65
2018-07-11T14:33:21.454Z,22.61
2018-07-11T14:35:49.681Z,22.59
2018-07-11T14:38:17.941Z,22.55
2018-07-11T14:40:46.191Z,22.54
2018-07-11T14:43:14.421Z,22.53
2018-07-11T14:45:42.706Z,22.52
2018-07-11T14:48:15.169Z,22.50
2018-07-11T14:50:43.824Z,22.46
2018-07-11T14:53:12.193Z,22.44
2018-07-11T14:55:40.445Z,22.43
2018-07-11T14:58:08.689Z,22.42
2018-07-11T15:00:36.937Z,22.37
2018-07-11T15:03:05.196Z,22.30
2018-07-11T15:05:33.444Z,22.23
2018-07-11T15:08:01.739Z,22.16
2018-07-11T15:10:30.010Z,22.09
2018-07-11T15:12:58.280Z,22.02
2018-07-11T15:15:26.521Z,21.99
2018-07-11T15:17:54.748Z,21.93
2018-07-11T15:20:23.021Z,21.89
2018-07-11T15:22:51.333Z,21.90
2018-07-11T15:25:19.549Z,21.89
2018-07-11T15:27:47.824Z,21.86
2018-07-11T15:30:16.085Z,21.84
2018-07-11T15:32:44.404Z,21.79
2018-07-11T15:35:12.608Z,21.73
2018-07-11T15:37:40.857Z,21.68
2018-07-11T15:40:09.121Z,21.65
2018-07-11T15:42:37.381Z,21.64
2018-07-11T15:45:05.968Z,21.65
2018-07-11T15:47:35.737Z,21.67
2018-07-11T15:50:04.189Z,21.70
2018-07-11T15:52:34.458Z,21.73
2018-07-11T15:55:04.485Z,21.74
2018-07-11T15:57:35.201Z,21.71
2018-07-11T16:00:08.773Z,21.66
2018-07-11T16:02:46.934Z,21.62
2018-07-11T16:05:18.415Z,21.58
2018-07-11T16:07:48.770Z,21.51
2018-07-11T16:10:18.676Z,21.49
2018-07-11T16:12:46.973Z,21.49
2018-07-11T16:15:15.228Z,21.50
2018-07-11T16:17:43.453Z,21.51
2018-07-11T16:20:11.673Z,21.53
2018-07-11T16:22:39.920Z,21.55
2018-07-11T16:25:08.145Z,21.58
2018-07-11T16:27:36.461Z,21.59
2018-07-11T16:30:04.802Z,21.61
2018-07-11T16:32:33.047Z,21.62
2018-07-11T16:35:01.273Z,21.64
2018-07-11T16:37:29.521Z,21.64
2018-07-11T16:39:57.772Z,21.64
2018-07-11T16:42:26.005Z,21.64
2018-07-11T16:44:54.257Z,21.61
2018-07-11T16:47:22.580Z,21.59
2018-07-11T16:49:50.974Z,21.58
2018-07-11T16:52:19.253Z,21.58
2018-07-11T16:54:47.529Z,21.59
2018-07-11T16:57:21.435Z,21.62
2018-07-11T16:59:56.688Z,21.62
2018-07-11T17:02:26.061Z,21.62
2018-07-11T17:04:55.900Z,21.61
2018-07-11T17:07:25.609Z,21.61
2018-07-11T17:09:56.369Z,21.59
2018-07-11T17:12:25.492Z,21.57
2018-07-11T17:14:57.761Z,21.55
2018-07-11T17:17:30.348Z,21.53
2018-07-11T17:20:04.077Z,21.53
2018-07-11T17:22:35.173Z,21.53
2018-07-11T17:25:06.433Z,21.55
2018-07-11T17:27:34.741Z,21.54
2018-07-11T17:30:03.980Z,21.51
2018-07-11T17:32:32.581Z,21.47
2018-07-11T17:35:00.852Z,21.44
2018-07-11T17:37:32.494Z,21.39
2018-07-11T17:40:08.905Z,21.35
2018-07-11T17:42:37.164Z,21.31
2018-07-11T17:45:14.615Z,21.25
2018-07-11T17:49:59.305Z,21.20
2018-07-11T17:52:28.612Z,21.09
2018-07-11T17:55:14.269Z,21.05
2018-07-11T17:57:52.021Z,21.00
2018-07-11T18:00:56.969Z,20.95
2018-07-11T18:03:41.950Z,20.90
2018-07-11T18:06:25.600Z,20.87
2018-07-11T18:09:05.569Z,20.83
2018-07-11T18:12:44.338Z,20.78
2018-07-11T18:15:26.890Z,20.73
2018-07-11T18:18:16.946Z,20.71
2018-07-11T18:20:51.369Z,20.70
2018-07-11T18:23:44.481Z,20.64
2018-07-11T18:26:18.913Z,20.61
2018-07-11T18:28:59.365Z,20.57
2018-07-11T18:31:46.105Z,20.57
2018-07-11T18:34:27.323Z,20.59
2018-07-11T18:37:07.785Z,20.59
2018-07-11T18:39:44.403Z,20.58
2018-07-11T18:42:49.081Z,20.53
2018-07-11T18:48:31.245Z,20.47
2018-07-11T18:51:06.421Z,20.42
2018-07-11T18:54:13.989Z,20.42
2018-07-11T18:56:57.960Z,20.40
2018-07-11T18:59:35.406Z,20.39
2018-07-11T19:02:14.435Z,20.36
2018-07-11T19:05:22.264Z,20.36
2018-07-11T19:07:55.314Z,20.34
2018-07-11T19:11:36.261Z,20.36
2018-07-11T19:14:08.905Z,20.39
2018-07-11T19:16:56.845Z,20.42
2018-07-11T19:19:33.024Z,20.41
2018-07-11T19:22:03.273Z,20.38
2018-07-11T19:24:49.017Z,20.39
2018-07-11T19:27:31.109Z,20.38
2018-07-11T19:30:22.165Z,20.36
2018-07-11T19:33:00.944Z,20.34
2018-07-11T19:37:42.908Z,20.33
2018-07-11T19:40:15.094Z,20.29
2018-07-11T19:45:29.403Z,20.30
2018-07-11T19:50:16.948Z,20.23
2018-07-11T19:52:53.585Z,20.18
2018-07-11T19:56:37.157Z,20.16
2018-07-11T19:59:05.420Z,20.15
2018-07-11T20:01:33.668Z,20.16
2018-07-11T20:04:01.965Z,20.15
2018-07-11T20:06:30.308Z,20.16
2018-07-11T20:08:58.641Z,20.16
2018-07-11T20:11:26.910Z,20.15
2018-07-11T20:13:55.491Z,20.18
2018-07-11T20:16:24.386Z,20.17
2018-07-11T20:18:52.767Z,20.17
2018-07-11T20:21:21.685Z,20.16
2018-07-11T20:23:49.988Z,20.15
2018-07-11T20:26:19.096Z,20.16
2018-07-11T20:28:47.373Z,20.17
2018-07-11T20:31:16.058Z,20.18
2018-07-11T20:33:44.364Z,20.18
2018-07-11T20:36:12.845Z,20.19
2018-07-11T20:38:41.745Z,20.18
2018-07-11T20:41:10.136Z,20.20
2018-07-11T20:43:38.404Z,20.20
2018-07-11T20:46:07.337Z,20.21
2018-07-11T20:48:37.256Z,20.21
2018-07-11T20:51:05.743Z,20.22
2018-07-11T20:53:33.978Z,20.21
2018-07-11T20:56:02.180Z,20.21
2018-07-11T20:58:41.605Z,20.20
2018-07-11T21:01:21.140Z,20.18
2018-07-11T21:07:09.759Z,20.16
2018-07-11T21:09:49.777Z,20.13
2018-07-11T21:14:32.029Z,20.14
2018-07-11T21:17:14.780Z,20.08
2018-07-11T21:19:43.038Z,20.05
2018-07-11T21:22:11.237Z,20.04
2018-07-11T21:24:39.497Z,20.05
2018-07-11T21:27:07.763Z,20.05
2018-07-11T21:29:36.040Z,20.05
2018-07-11T21:32:04.292Z,20.05
2018-07-11T21:34:32.531Z,20.05
2018-07-11T21:37:00.845Z,20.07
2018-07-11T21:39:29.193Z,20.09
2018-07-11T21:41:57.444Z,20.09
2018-07-11T21:44:25.692Z,20.12
2018-07-11T21:46:53.913Z,20.11
2018-07-11T21:49:23.031Z,20.09
2018-07-11T21:51:51.657Z,20.11
2018-07-11T21:54:19.905Z,20.13
2018-07-11T21:56:48.121Z,20.13
2018-07-11T21:59:16.367Z,20.13
2018-07-11T22:01:44.601Z,20.11
2018-07-11T22:04:12.856Z,20.08
2018-07-11T22:06:41.077Z,20.07
2018-07-11T22:09:09.333Z,20.05
2018-07-11T22:11:37.565Z,20.01
2018-07-11T22:14:05.868Z,19.98
2018-07-11T22:16:34.141Z,19.96
2018-07-11T22:19:02.394Z,19.93
2018-07-11T22:21:29.509Z,19.91
2018-07-11T22:23:56.629Z,19.91
2018-07-11T22:26:23.740Z,19.90
2018-07-11T22:28:50.864Z,19.89
2018-07-11T22:31:17.968Z,19.90
2018-07-11T22:33:45.113Z,19.89
2018-07-11T22:36:12.224Z,19.90
2018-07-11T22:38:39.368Z,19.92
2018-07-11T22:41:06.488Z,19.95
2018-07-11T22:43:33.614Z,19.96
2018-07-11T22:46:00.755Z,19.96
2018-07-11T22:48:27.857Z,19.99
2018-07-11T22:50:54.976Z,19.99
2018-07-11T22:53:22.133Z,20.00
2018-07-11T22:55:49.274Z,20.00
2018-07-11T22:58:16.400Z,20.01
2018-07-11T23:00:43.521Z,20.01
2018-07-11T23:03:10.638Z,20.02
2018-07-11T23:05:37.772Z,20.04
2018-07-11T23:08:04.909Z,20.05
2018-07-11T23:10:32.025Z,20.05
2018-07-11T23:12:59.277Z,20.05
2018-07-11T23:15:26.384Z,20.05
2018-07-11T23:17:53.500Z,20.05
2018-07-11T23:20:20.683Z,20.05
2018-07-11T23:22:47.749Z,20.05
2018-07-11T23:25:14.874Z,20.04
2018-07-11T23:27:41.988Z,20.03
2018-07-11T23:30:09.117Z,20.03
2018-07-11T23:32:36.236Z,20.02
2018-07-11T23:35:03.361Z,20.01
2018-07-11T23:37:30.472Z,20.02
2018-07-11T23:39:57.599Z,20.01
2018-07-11T23:42:24.717Z,20.00
2018-07-11T23:44:51.838Z,19.95
2018-07-11T23:47:18.945Z,19.92
2018-07-11T23:49:46.070Z,19.90
2018-07-11T23:52:13.181Z,19.90
2018-07-11T23:54:40.309Z,19.89
2018-07-11T23:57:07.421Z,19.89
2018-07-11T23:59:34.573Z,19.89
